Time;durP1;ratioP1;P1;durP2;ratioP2;P2;SDS_P1;SDS_P2;PMS_P1;PMS_P2;Temp;Humidity;BMP_temperature;BMP_pressure;BME280_temperature;BME280_humidity;BME280_pressure;Samples;Min_cycle;Max_cycle;Signal;HPM_P1;HPM_P2
2022/11/14 00:00:32;;;;;;;226.75;64.53;;;;;;;7.29;88.41;102134.38;6339936;22;20033;-95
2022/11/14 00:06:42;;;;;;;204.52;60.50;;;;;;;7.61;87.88;102168.78;6340393;22;20079;-95
2022/11/14 00:26:40;;;;;;;253.00;45.97;;;;;;;7.29;89.59;102155.75;6342958;22;20093;-96
2022/11/14 01:05:33;;;;;;;;;;;;;;;7.03;90.77;102140.59;6229745;23;20147;-95
2022/11/14 01:08:51;;;;;;;114.60;36.13;;;;;;;6.60;90.99;102079.25;6163740;23;20018;-96
2022/11/14 01:16:07;;;;;;;162.13;38.13;;;;;;;6.89;90.68;102125.47;6229047;23;20030;-96
2022/11/14 01:19:20;;;;;;;93.43;37.00;;;;;;;6.94;90.40;102124.19;6232527;23;20055;-96
2022/11/14 01:25:37;;;;;;;166.48;38.78;;;;;;;6.42;91.25;102084.00;6230158;23;20067;-95
2022/11/14 01:28:23;;;;;;;;;;;;;;;6.71;91.25;102122.19;6209372;23;20047;-94
2022/11/14 01:31:28;;;;;;;112.18;39.38;;;;;;;6.49;91.68;102096.00;6308166;22;20047;-95
2022/11/14 03:32:34;;;;;;;75.20;33.42;;;;;;;5.94;94.01;102062.97;6294116;22;20342;-94
2022/11/14 05:01:15;;;;;;;52.25;25.30;;;;;;;5.45;93.02;102066.84;6366720;22;20022;-93
2022/11/14 05:07:33;;;;;;;55.22;26.20;;;;;;;5.82;92.83;102136.66;6382880;22;20010;-94
2022/11/14 05:10:28;;;;;;;56.00;27.52;;;;;;;5.61;92.70;102112.13;6384224;22;20011;-92
2022/11/14 05:13:22;;;;;;;55.35;27.92;;;;;;;5.60;92.68;102091.75;6368695;22;20006;-90
2022/11/14 05:19:47;;;;;;;59.85;28.92;;;;;;;5.83;92.29;102145.50;6378837;22;20060;-94
2022/11/14 05:25:41;;;;;;;70.65;29.50;;;;;;;5.98;91.63;102155.28;6379275;22;20433;-94
2022/11/14 05:28:46;;;;;;;61.70;28.38;;;;;;;6.11;91.34;102145.56;6328119;22;19999;-93
2022/11/14 05:31:17;;;;;;;56.65;29.50;;;;;;;5.88;90.62;102120.25;6360205;22;20070;-90
2022/11/14 05:34:27;;;;;;;68.53;30.25;;;;;;;6.04;90.79;102149.59;6366270;22;20006;-89
2022/11/14 05:36:55;;;;;;;54.88;27.45;;;;;;;6.05;89.90;102134.41;6361052;22;20010;-92
2022/11/14 05:39:22;;;;;;;58.55;25.55;;;;;;;6.03;89.43;102147.84;6383007;22;20070;-91
2022/11/14 05:41:48;;;;;;;48.45;26.13;;;;;;;5.87;89.66;102115.00;6351067;22;20154;-88
2022/11/14 05:51:06;;;;;;;43.83;25.30;;;;;;;6.56;88.27;102140.09;6372447;22;20014;-89
2022/11/14 05:53:44;;;;;;;47.53;26.35;;;;;;;6.98;87.70;102162.31;6359054;22;20017;-90
2022/11/14 05:56:20;;;;;;;45.83;24.40;;;;;;;6.96;86.57;102141.00;6338738;22;20015;-91
2022/11/14 05:59:31;;;;;;;46.83;25.85;;;;;;;7.13;85.51;102165.78;6393411;22;20012;-90
2022/11/14 06:02:00;;;;;;;46.08;24.92;;;;;;;6.96;85.25;102138.31;6352345;22;20079;-89
2022/11/14 06:11:27;;;;;;;39.60;23.55;;;;;;;7.90;82.37;102155.22;6366854;22;20018;-91
2022/11/14 06:14:15;;;;;;;38.88;22.98;;;;;;;8.23;81.56;102166.22;6342275;22;20051;-92
2022/11/14 06:17:18;;;;;;;38.33;21.20;;;;;;;8.47;80.98;102160.09;6368921;22;20014;-91
2022/11/14 06:20:34;;;;;;;40.65;20.23;;;;;;;8.83;80.10;102164.63;6320458;22;20018;-88
2022/11/14 06:27:10;;;;;;;34.55;18.25;;;;;;;9.28;78.18;102155.94;6372485;22;20067;-89
2022/11/14 06:29:50;;;;;;;37.15;17.27;;;;;;;9.33;77.67;102134.97;6342376;22;20059;-89
2022/11/14 06:32:18;;;;;;;40.22;19.98;;;;;;;9.51;77.64;102122.81;6311938;22;20513;-86
2022/11/14 06:34:45;;;;;;;38.60;19.63;;;;;;;9.97;77.53;102158.66;6283397;22;20015;-88
2022/11/14 06:37:22;;;;;;;38.70;18.92;;;;;;;10.26;76.40;102158.19;6337210;22;20082;-89
2022/11/14 06:39:49;;;;;;;41.70;19.55;;;;;;;10.08;74.21;102106.75;6308207;22;20351;-89
2022/11/14 06:42:17;;;;;;;35.67;19.75;;;;;;;10.49;72.53;102126.81;6282633;22;20332;-92
2022/11/14 06:44:48;;;;;;;41.03;23.40;;;;;;;11.18;70.43;102156.94;6312499;22;20022;-89
2022/11/14 06:47:15;;;;;;;38.50;23.13;;;;;;;11.99;66.38;102141.09;6338096;22;20002;-90
2022/11/14 06:50:13;;;;;;;35.25;21.85;;;;;;;12.88;62.22;102154.72;6307980;22;20014;-89
2022/11/14 06:52:40;;;;;;;32.65;20.23;;;;;;;13.63;60.17;102138.81;6283072;22;20042;-87
2022/11/14 06:55:06;;;;;;;26.83;18.50;;;;;;;13.92;57.45;102121.69;6309601;22;20007;-90
2022/11/14 06:57:35;;;;;;;29.73;19.10;;;;;;;14.31;56.44;102144.03;6311026;22;19999;-90
2022/11/14 07:00:03;;;;;;;27.48;19.35;;;;;;;14.39;56.11;102155.94;6347407;22;20102;-93
2022/11/14 07:02:31;;;;;;;32.22;19.02;;;;;;;14.25;56.12;102130.22;6311163;22;20396;-89
2022/11/14 07:04:57;;;;;;;26.90;17.40;;;;;;;14.35;55.94;102117.50;6310678;22;20021;-87
2022/11/14 07:07:26;;;;;;;24.77;17.20;;;;;;;14.23;56.02;102095.19;6308808;22;20011;-89
2022/11/14 07:09:55;;;;;;;28.70;17.40;;;;;;;14.90;55.92;102133.72;6335484;22;20011;-91
2022/11/14 07:12:27;;;;;;;29.83;17.83;;;;;;;15.20;53.81;102101.84;6293338;22;20007;-91
2022/11/14 07:14:57;;;;;;;29.42;18.05;;;;;;;15.79;51.89;102107.56;6310414;22;20470;-91
2022/11/14 07:17:27;;;;;;;26.02;17.63;;;;;;;15.94;51.38;102121.38;6346359;22;19987;-94
2022/11/14 07:22:54;;;;;;;29.58;17.67;;;;;;;17.64;46.63;102137.44;6368774;22;20098;-94
2022/11/14 07:28:14;;;;;;;36.10;20.80;;;;;;;19.05;43.54;102093.13;6335059;22;20056;-93
2022/11/14 07:34:51;;;;;;;35.40;21.58;;;;;;;19.74;41.00;102136.72;6318162;22;20044;-92
2022/11/14 07:37:29;;;;;;;36.05;22.35;;;;;;;19.78;40.35;102097.97;6319395;22;20011;-92
2022/11/14 07:48:50;;;;;;;33.90;21.85;;;;;;;22.29;36.50;102094.38;6374909;22;20033;-92
2022/11/14 07:51:20;;;;;;;28.67;20.15;;;;;;;22.59;35.38;102093.19;6207681;22;20028;-92
2022/11/14 08:07:57;;;;;;;28.48;19.52;;;;;;;25.48;31.21;102117.66;6364214;22;20033;-96
2022/11/14 08:10:46;;;;;;;108.65;23.60;;;;;;;25.33;30.91;102125.38;6334783;22;20014;-94
2022/11/14 08:13:31;;;;;;;30.55;20.15;;;;;;;24.80;31.28;102085.31;6368071;22;20035;-93
2022/11/14 08:16:17;;;;;;;63.58;21.77;;;;;;;24.58;31.39;102097.72;6377643;22;20022;-92
2022/11/14 08:18:46;;;;;;;37.95;20.63;;;;;;;25.52;31.09;102118.06;6362545;22;20015;-93
2022/11/14 08:24:51;;;;;;;31.85;19.52;;;;;;;25.60;30.22;102070.94;6359023;22;20029;-93
2022/11/14 08:27:56;;;;;;;33.63;19.63;;;;;;;26.00;29.48;102114.63;6350509;22;20041;-95
2022/11/14 08:36:56;;;;;;;33.83;20.27;;;;;;;27.34;27.84;102083.28;6335669;22;20053;-94
2022/11/14 08:39:42;;;;;;;31.38;20.80;;;;;;;27.90;26.83;102075.50;6344068;22;20385;-96
2022/11/14 08:42:29;;;;;;;29.38;20.77;;;;;;;28.48;26.37;102087.53;6323502;22;20112;-94
2022/11/14 08:50:18;;;;;;;31.35;21.65;;;;;;;30.45;23.89;102081.75;6348822;22;20085;-94
2022/11/14 08:52:57;;;;;;;27.63;20.77;;;;;;;29.83;24.11;102071.81;6317353;22;20014;-94
2022/11/14 08:55:31;;;;;;;29.30;20.98;;;;;;;29.34;25.00;102056.94;6341838;22;20003;-90
2022/11/14 08:57:58;;;;;;;33.40;21.38;;;;;;;29.62;24.67;102056.81;6311715;22;20015;-88
2022/11/14 09:24:59;;;;;;;25.67;19.40;;;;;;;29.89;23.14;102067.19;6247573;22;20115;-95
2022/11/14 09:27:26;;;;;;;26.92;17.85;;;;;;;27.95;24.71;102043.28;6221893;23;20123;-92
2022/11/14 09:29:51;;;;;;;29.95;19.33;;;;;;;26.50;26.77;102061.19;6218880;23;20012;-90
2022/11/14 09:32:44;;;;;;;31.23;18.30;;;;;;;24.69;29.27;102041.19;6228763;23;20476;-96
2022/11/14 09:35:15;;;;;;;27.25;18.48;;;;;;;23.17;31.80;102044.16;6326345;22;20015;-89
2022/11/14 10:14:58;;;;;;;34.55;15.57;;;;;;;14.49;52.03;102019.59;6327369;22;20128;-93
2022/11/14 10:28:52;;;;;;;32.08;15.38;;;;;;;14.52;52.80;102030.13;6362878;22;20022;-95
2022/11/14 10:31:51;;;;;;;30.48;16.27;;;;;;;14.45;53.09;102031.72;6382402;22;20447;-95
2022/11/14 10:34:40;;;;;;;30.10;16.05;;;;;;;14.00;53.58;101970.38;6349556;22;20003;-93
2022/11/14 10:37:44;;;;;;;37.22;16.27;;;;;;;13.89;54.54;101992.22;6327065;22;20110;-92
2022/11/14 10:40:15;;;;;;;34.95;16.70;;;;;;;13.89;54.65;102019.25;6324201;22;20044;-90
2022/11/14 10:42:42;;;;;;;33.92;16.10;;;;;;;13.34;55.89;101992.13;6314641;22;20016;-90
2022/11/14 10:45:43;;;;;;;33.35;16.77;;;;;;;13.16;56.57;101983.91;6314203;22;20354;-90
2022/11/14 10:48:15;;;;;;;34.58;16.23;;;;;;;13.23;57.07;102021.00;6320394;22;20129;-91
2022/11/14 10:51:08;;;;;;;36.85;17.55;;;;;;;13.22;57.00;102008.47;6316829;22;20010;-90
2022/11/14 10:53:53;;;;;;;32.33;16.20;;;;;;;12.80;57.59;101973.72;6316016;22;20006;-91
2022/11/14 10:56:19;;;;;;;35.00;16.58;;;;;;;12.84;57.70;101991.34;6315335;22;20010;-91
2022/11/14 10:58:46;;;;;;;34.35;15.48;;;;;;;12.67;57.91;101978.59;6302927;22;20014;-92
2022/11/14 11:01:45;;;;;;;32.63;14.80;;;;;;;12.81;58.42;102018.63;6343273;22;20017;-91
2022/11/14 11:04:20;;;;;;;39.10;16.55;;;;;;;12.49;58.46;101985.69;6314439;22;20071;-91
2022/11/14 11:06:52;;;;;;;35.38;15.45;;;;;;;12.29;59.19;101985.66;6346120;22;20365;-89
2022/11/14 11:12:23;;;;;;;31.80;14.95;;;;;;;12.44;59.28;101983.41;6343095;22;20024;-92
2022/11/14 11:15:08;;;;;;;31.55;14.70;;;;;;;12.36;58.53;101957.16;6314647;22;20010;-90
2022/11/14 11:17:34;;;;;;;33.65;15.50;;;;;;;12.71;58.57;102008.81;6346527;22;20081;-90
2022/11/14 11:20:25;;;;;;;33.33;14.98;;;;;;;12.71;58.72;102006.97;6290783;22;20097;-89
2022/11/14 11:23:16;;;;;;;34.67;16.35;;;;;;;12.52;59.68;102007.81;6367231;22;20009;-91
2022/11/14 11:25:42;;;;;;;36.33;16.23;;;;;;;12.66;59.22;102010.09;6342832;22;20438;-92
2022/11/14 11:28:21;;;;;;;;;;;;;;;12.75;59.49;102004.84;6313300;22;20014;-90
2022/11/14 11:31:20;;;;;;;36.22;15.15;;;;;;;12.87;59.00;102006.41;6369765;22;19918;-89
2022/11/14 11:33:47;;;;;;;39.03;15.25;;;;;;;12.57;58.53;101956.13;6346625;22;20010;-91
2022/11/14 11:36:19;;;;;;;41.72;17.70;;;;;;;12.89;58.56;101990.91;6313516;22;20295;-93
2022/11/14 11:38:47;;;;;;;36.70;16.05;;;;;;;12.59;58.40;101951.44;6289518;22;20038;-91
2022/11/14 11:41:33;;;;;;;35.50;16.30;;;;;;;12.88;58.61;101997.31;6367033;22;20110;-93
2022/11/14 11:44:01;;;;;;;35.30;15.65;;;;;;;12.79;58.64;101980.13;6339086;22;20107;-88
2022/11/14 11:46:52;;;;;;;36.15;16.38;;;;;;;12.75;58.53;101983.25;6339535;22;20002;-92
2022/11/14 11:49:42;;;;;;;38.22;17.48;;;;;;;12.72;59.05;101997.06;6366337;22;19999;-93
2022/11/14 11:52:26;;;;;;;36.05;15.43;;;;;;;12.68;58.65;102004.56;6337993;22;20006;-92
2022/11/14 11:55:25;;;;;;;35.25;15.57;;;;;;;12.23;59.33;101952.00;6339353;22;20002;-91
2022/11/14 11:57:56;;;;;;;34.75;16.83;;;;;;;12.34;59.18;101969.03;6288042;22;20014;-92
2022/11/14 12:00:23;;;;;;;36.42;16.95;;;;;;;12.19;59.63;101958.66;6315518;22;20044;-89
2022/11/14 12:02:51;;;;;;;34.90;16.67;;;;;;;12.51;59.51;101984.53;6339257;22;20041;-90
2022/11/14 12:05:28;;;;;;;35.80;16.33;;;;;;;12.51;59.23;101997.19;6317616;22;20006;-92
2022/11/14 12:07:57;;;;;;;34.15;16.10;;;;;;;12.42;58.68;101950.31;6340298;22;20010;-91
2022/11/14 12:10:28;;;;;;;32.95;16.27;;;;;;;12.58;58.74;101979.44;6318938;22;20003;-91
2022/11/14 12:13:00;;;;;;;34.10;15.55;;;;;;;12.71;58.45;101990.78;6317646;22;20002;-90
2022/11/14 12:15:48;;;;;;;36.60;16.08;;;;;;;12.74;58.55;101987.81;6368398;22;20010;-91
2022/11/14 12:18:54;;;;;;;36.63;17.00;;;;;;;12.79;58.21;101982.84;6367554;22;19998;-90
2022/11/14 12:21:32;;;;;;;37.58;16.65;;;;;;;12.63;58.71;101966.38;6299795;22;20085;-91
2022/11/14 12:24:25;;;;;;;40.70;16.77;;;;;;;12.59;58.89;101981.97;6382437;22;20062;-90
2022/11/14 12:27:21;;;;;;;44.70;17.38;;;;;;;12.19;59.38;101941.66;6380322;22;20096;-91
2022/11/14 12:30:09;;;;;;;39.55;16.85;;;;;;;12.49;59.32;101974.91;6368977;22;20010;-90
2022/11/14 12:33:00;;;;;;;36.90;16.38;;;;;;;12.06;59.84;101951.84;6343193;22;20043;-91
2022/11/14 12:35:33;;;;;;;35.38;15.90;;;;;;;12.16;59.73;101958.13;6344784;22;20051;-90
2022/11/14 12:38:05;;;;;;;38.53;15.75;;;;;;;12.29;59.39;101982.09;6291267;22;20350;-91
2022/11/14 12:40:38;;;;;;;34.85;15.82;;;;;;;12.17;60.00;101982.22;6372797;22;20003;-94
2022/11/14 12:43:48;;;;;;;33.10;15.02;;;;;;;11.65;60.51;101959.09;6326188;22;20014;-91
2022/11/14 12:46:23;;;;;;;34.50;14.68;;;;;;;11.75;60.78;101981.50;6202063;22;20025;-89
2022/11/14 12:48:50;;;;;;;31.15;14.23;;;;;;;11.68;60.90;101972.28;6327029;22;20002;-90
2022/11/14 12:51:27;;;;;;;26.38;12.98;;;;;;;11.73;60.74;101986.19;6329661;22;20010;-90
2022/11/14 12:54:01;;;;;;;31.45;14.27;;;;;;;11.59;60.91;101979.34;6344348;22;20010;-91
2022/11/14 12:57:03;;;;;;;31.48;14.02;;;;;;;11.70;61.10;101990.00;6345663;22;20024;-88
2022/11/14 12:59:41;;;;;;;33.22;13.30;;;;;;;11.42;60.84;101943.09;6345708;22;20019;-90
2022/11/14 13:02:25;;;;;;;29.83;14.23;;;;;;;11.65;60.93;101986.88;6361599;22;20018;-90
2022/11/14 13:05:20;;;;;;;29.08;13.20;;;;;;;11.70;60.89;101986.47;6344667;22;20032;-89
2022/11/14 13:07:54;;;;;;;32.20;13.27;;;;;;;11.68;60.72;101985.75;6344515;22;20075;-90
2022/11/14 13:10:39;;;;;;;29.60;13.85;;;;;;;11.42;61.07;101956.56;6373307;22;20082;-91
2022/11/14 13:22:22;;;;;;;29.20;13.20;;;;;;;11.47;61.16;101961.56;6355582;22;20020;-90
2022/11/14 13:24:58;;;;;;;35.35;14.80;;;;;;;11.54;61.34;101974.38;6350144;22;20021;-89
2022/11/14 13:27:39;;;;;;;31.07;14.10;;;;;;;11.40;61.49;101940.56;6349388;22;19994;-93
2022/11/14 13:30:09;;;;;;;30.67;15.07;;;;;;;11.31;62.01;101936.00;6333421;22;20042;-89
2022/11/14 13:32:55;;;;;;;33.45;15.00;;;;;;;11.47;62.18;101957.03;6360206;22;20002;-91
2022/11/14 13:35:55;;;;;;;33.90;15.97;;;;;;;11.43;62.46;101955.59;6359926;22;20071;-91
2022/11/14 13:39:06;;;;;;;39.08;16.20;;;;;;;11.47;63.17;101967.81;6221097;23;20009;-89
2022/11/14 13:41:42;;;;;;;36.85;15.23;;;;;;;11.41;62.85;101963.81;6259595;22;20010;-89
2022/11/14 13:44:27;;;;;;;;;;;;;;;11.26;62.35;101969.66;6346792;22;20021;-90
2022/11/14 13:47:13;;;;;;;;;;;;;;;11.16;62.62;101973.16;6344530;22;19905;-90
2022/11/14 13:50:03;;;;;;;29.48;13.95;;;;;;;11.02;62.79;101951.13;6316067;22;19934;-91
2022/11/14 13:52:33;;;;;;;39.33;13.35;;;;;;;11.03;62.73;101953.69;6346148;22;20006;-91
2022/11/14 13:56:16;;;;;;;29.60;13.10;;;;;;;11.08;62.49;101956.00;6323395;22;20013;-90
2022/11/14 13:58:59;;;;;;;28.80;12.68;;;;;;;11.09;62.79;101961.22;6241947;22;20012;-89
2022/11/14 14:02:06;;;;;;;26.85;12.77;;;;;;;10.77;62.94;101937.94;6222510;23;20026;-95
2022/11/14 14:04:37;;;;;;;40.92;15.13;;;;;;;11.00;62.97;101980.84;6232909;23;20428;-92
2022/11/14 14:07:45;;;;;;;34.03;13.98;;;;;;;10.62;62.84;101928.47;6241585;23;20346;-90
2022/11/14 14:10:32;;;;;;;31.90;13.73;;;;;;;10.84;63.22;101983.13;6299950;22;20335;-90
2022/11/14 14:13:10;;;;;;;32.45;13.73;;;;;;;10.75;63.45;101966.81;6340301;22;20106;-93
2022/11/14 14:15:55;;;;;;;31.50;13.05;;;;;;;10.65;63.19;101944.38;6315691;22;20076;-92
2022/11/14 14:18:40;;;;;;;30.67;13.10;;;;;;;10.62;63.52;101944.63;6342182;22;20022;-89
2022/11/14 14:22:07;;;;;;;27.90;13.00;;;;;;;10.82;63.66;101966.31;6351629;22;20002;-93
2022/11/14 14:24:44;;;;;;;36.25;13.32;;;;;;;10.66;63.63;101940.69;6375639;22;20014;-94
2022/11/14 14:27:49;;;;;;;36.47;14.45;;;;;;;10.84;63.60;101965.19;6296296;22;20033;-90
2022/11/14 14:30:42;;;;;;;26.97;13.43;;;;;;;10.39;63.64;101913.44;6330481;22;20019;-91
2022/11/14 14:36:28;;;;;;;26.80;12.77;;;;;;;10.60;63.54;101959.19;6336887;22;20334;-96
2022/11/14 14:39:36;;;;;;;28.35;12.55;;;;;;;10.34;64.20;101951.47;6348402;22;20010;-95
2022/11/14 14:42:18;;;;;;;27.85;12.30;;;;;;;10.22;65.22;101958.69;6334136;22;20003;-96
2022/11/14 14:44:51;;;;;;;33.72;14.02;;;;;;;10.16;64.37;101926.97;6349464;22;20001;-92
2022/11/14 14:55:34;;;;;;;31.92;14.35;;;;;;;10.03;65.73;101958.50;6312940;22;20477;-92
2022/11/14 15:13:25;;;;;;;31.40;13.23;;;;;;;9.49;67.07;101911.81;6332219;22;20256;-95
2022/11/14 15:15:57;;;;;;;30.42;12.85;;;;;;;9.67;67.09;101929.13;6285392;22;20011;-91
2022/11/14 15:19:19;;;;;;;;;;;;;;;;;;;;;
2022/11/14 15:22:41;;;;;;;;;;;;;;;;;;;;;
2022/11/14 15:27:59;;;;;;;29.02;13.68;;;;;;;9.78;66.89;101944.38;6313110;22;20027;-93
2022/11/14 15:34:41;;;;;;;33.53;13.52;;;;;;;9.76;66.94;101940.09;6317901;22;20034;-91
2022/11/14 15:37:12;;;;;;;29.20;13.63;;;;;;;9.86;66.92;101957.19;6325826;22;20153;-94
2022/11/14 15:42:27;;;;;;;30.30;13.97;;;;;;;9.62;66.66;101903.63;6368092;22;20018;-91
2022/11/14 15:44:56;;;;;;;25.40;12.30;;;;;;;9.77;66.89;101942.66;6344712;22;20320;-93
2022/11/14 15:47:59;;;;;;;28.45;13.23;;;;;;;9.80;66.96;101963.91;6346724;22;20014;-91
2022/11/14 15:50:42;;;;;;;60.60;14.63;;;;;;;9.64;67.46;101958.06;6350748;22;20014;-91
2022/11/14 15:56:40;;;;;;;29.33;13.02;;;;;;;9.71;67.57;101959.28;6388504;22;20037;-94
2022/11/14 15:59:30;;;;;;;33.75;13.55;;;;;;;9.70;67.55;101960.25;6346898;22;20096;-94
2022/11/14 16:05:28;;;;;;;31.75;12.40;;;;;;;9.38;67.61;101920.72;6385261;22;20033;-90
2022/11/14 16:08:16;;;;;;;30.92;13.57;;;;;;;9.59;67.70;101960.25;6351259;22;20007;-88
2022/11/14 16:11:06;;;;;;;32.72;14.00;;;;;;;9.73;67.56;101970.75;6332180;22;19994;-95
2022/11/14 16:13:44;;;;;;;25.63;12.88;;;;;;;9.69;67.16;101946.00;6382672;22;20032;-93
2022/11/14 16:19:53;;;;;;;30.17;12.55;;;;;;;9.55;67.49;101964.16;6386460;22;20013;-92
2022/11/14 16:22:37;;;;;;;30.25;12.80;;;;;;;9.24;67.37;101908.41;6363268;22;20008;-93
2022/11/14 16:31:20;;;;;;;24.60;11.95;;;;;;;9.27;68.68;101971.72;6377985;22;20055;-94
2022/11/14 16:33:48;;;;;;;29.98;12.00;;;;;;;9.16;68.59;101979.78;6307096;22;20099;-94
2022/11/14 16:36:44;;;;;;;26.35;12.45;;;;;;;9.20;68.70;101976.72;6326420;22;19998;-94
2022/11/14 16:39:18;;;;;;;25.58;11.00;;;;;;;9.11;68.28;101939.00;6372377;22;20446;-92
2022/11/14 16:42:05;;;;;;;26.23;11.90;;;;;;;9.20;68.62;101975.84;6346586;22;20010;-91
2022/11/14 16:45:10;;;;;;;24.40;12.07;;;;;;;9.12;68.89;101975.59;6346307;22;20032;-91
2022/11/14 16:51:15;;;;;;;27.88;13.93;;;;;;;8.87;69.13;101937.25;6307574;22;20023;-91
2022/11/14 16:53:42;;;;;;;26.65;13.00;;;;;;;8.95;69.53;101961.69;6376789;22;20014;-88
2022/11/14 16:56:10;;;;;;;25.13;11.77;;;;;;;8.64;69.61;101926.50;6321642;22;20081;-91
2022/11/14 16:58:40;;;;;;;24.33;11.77;;;;;;;8.65;69.58;101924.66;6321933;22;20063;-93
2022/11/14 17:01:23;;;;;;;26.75;11.82;;;;;;;8.55;70.91;101954.00;6328312;22;20002;-92
2022/11/14 17:06:44;;;;;;;;;;;;;;;8.69;70.81;101971.72;6324284;22;20018;-90
2022/11/14 17:09:11;;;;;;;21.73;11.13;;;;;;;8.68;71.58;101975.34;6350818;22;19913;-91
2022/11/14 17:11:38;;;;;;;24.38;11.73;;;;;;;8.57;70.99;101957.44;6297972;22;20014;-87
2022/11/14 17:14:07;;;;;;;22.63;12.30;;;;;;;8.54;70.93;101930.84;6381817;22;20089;-90
2022/11/14 17:16:34;;;;;;;27.77;12.20;;;;;;;8.67;71.66;101968.31;6349311;22;20442;-87
2022/11/14 17:19:25;;;;;;;22.05;11.73;;;;;;;8.85;70.79;101966.91;6342855;22;20007;-91
2022/11/14 17:21:52;;;;;;;21.83;11.90;;;;;;;8.74;70.74;101936.50;6394452;22;20017;-91
2022/11/14 17:24:17;;;;;;;;;;;;;;;8.89;70.52;101964.81;6363154;22;20058;-88
2022/11/14 17:26:56;;;;;;;19.83;10.90;;;;;;;8.73;70.99;101961.59;6350175;22;19963;-92
2022/11/14 17:29:22;;;;;;;18.95;9.98;;;;;;;8.39;71.36;101924.78;6311051;22;20014;-91
2022/11/14 17:31:51;;;;;;;21.00;11.07;;;;;;;8.72;71.28;101959.91;6321191;22;20007;-89
2022/11/14 17:34:18;;;;;;;21.50;12.45;;;;;;;8.67;71.34;101946.84;6369263;22;20017;-92
2022/11/14 17:36:45;;;;;;;18.65;9.70;;;;;;;8.56;70.96;101920.00;6318624;22;20006;-89
2022/11/14 17:39:10;;;;;;;34.63;10.60;;;;;;;8.50;70.96;101926.69;6346009;22;20037;-93
2022/11/14 17:41:44;;;;;;;17.05;9.43;;;;;;;8.30;71.00;101901.38;6347489;22;20006;-91
2022/11/14 17:44:14;;;;;;;17.33;9.80;;;;;;;8.48;71.29;101957.28;6345478;22;20118;-91
2022/11/14 17:46:39;;;;;;;16.73;9.50;;;;;;;8.14;71.09;101901.66;6380791;22;20102;-93
2022/11/14 17:49:09;;;;;;;18.42;9.65;;;;;;;8.32;71.73;101946.81;6323060;22;20013;-95
2022/11/14 17:51:53;;;;;;;16.38;8.95;;;;;;;8.16;71.52;101912.25;6337177;22;20091;-94
2022/11/14 17:54:47;;;;;;;18.25;9.75;;;;;;;8.33;71.24;101925.25;6379655;22;20462;-93
2022/11/14 17:57:12;;;;;;;16.77;9.45;;;;;;;8.29;71.88;101941.66;6327239;22;20006;-94
2022/11/14 17:59:41;;;;;;;16.98;9.82;;;;;;;8.56;71.83;101954.84;6381537;22;20036;-91
2022/11/14 18:02:29;;;;;;;18.05;9.80;;;;;;;8.05;72.02;101896.97;6326074;22;20093;-93
2022/11/14 18:04:59;;;;;;;19.73;9.52;;;;;;;8.36;71.97;101949.16;6372912;22;20087;-90
2022/11/14 18:07:31;;;;;;;18.40;10.48;;;;;;;8.20;72.32;101924.47;6346481;22;20046;-91
2022/11/14 18:10:02;;;;;;;21.30;10.52;;;;;;;8.45;72.50;101948.50;6369957;22;20506;-91
2022/11/14 18:12:30;;;;;;;16.48;9.85;;;;;;;8.16;72.41;101905.06;6346665;22;20040;-91
2022/11/14 18:15:03;;;;;;;18.70;9.98;;;;;;;8.41;71.75;101916.69;6346735;22;20026;-90
2022/11/14 18:17:30;;;;;;;21.30;10.40;;;;;;;8.02;72.49;101889.19;6321533;22;20014;-89
2022/11/14 18:19:59;;;;;;;20.38;10.00;;;;;;;8.06;72.26;101888.00;6374239;22;20120;-92
2022/11/14 18:22:36;;;;;;;19.52;10.20;;;;;;;7.92;72.83;101886.34;6325923;22;20127;-90
2022/11/14 18:25:09;;;;;;;17.88;10.05;;;;;;;8.28;72.35;101926.56;6328725;22;20030;-92
2022/11/14 18:27:35;;;;;;;19.05;9.85;;;;;;;8.14;72.69;101911.53;6294856;22;20124;-90
2022/11/14 18:30:12;;;;;;;18.58;10.15;;;;;;;8.08;72.59;101888.75;6319003;22;20010;-95
2022/11/14 18:33:02;;;;;;;;;;;;;;;;;;;;;
2022/11/14 18:35:32;;;;;;;18.50;10.00;;;;;;;8.21;72.44;101889.50;6326387;22;20041;-89
2022/11/14 18:39:03;;;;;;;;;;;;;;;;;;;;;
2022/11/14 18:42:00;;;;;;;22.27;10.32;;;;;;;8.37;71.91;101874.97;6338419;22;20054;-91
2022/11/14 18:44:33;;;;;;;19.88;10.02;;;;;;;8.45;72.07;101894.88;6383890;22;20064;-89
2022/11/14 18:47:00;;;;;;;19.98;10.20;;;;;;;8.31;72.03;101887.00;6361394;22;20369;-90
2022/11/14 18:49:31;;;;;;;21.17;12.00;;;;;;;8.46;72.91;101933.25;6371695;22;20010;-89
2022/11/14 18:55:20;;;;;;;19.05;11.20;;;;;;;8.31;72.37;101876.28;6345275;22;20038;-92
2022/11/14 18:57:56;;;;;;;20.52;10.02;;;;;;;8.43;72.30;101887.94;6290979;22;20022;-93
2022/11/14 19:00:34;;;;;;;18.77;10.43;;;;;;;8.38;73.11;101906.13;6342990;22;20120;-93
2022/11/14 19:03:24;;;;;;;19.42;10.63;;;;;;;8.30;72.94;101896.00;6298212;22;20025;-93
2022/11/14 19:09:29;;;;;;;18.98;10.20;;;;;;;8.41;72.94;101908.63;6355232;22;19994;-92
2022/11/14 19:28:18;;;;;;;18.42;10.20;;;;;;;8.58;73.50;101926.09;6349046;22;20037;-95
2022/11/14 19:30:48;;;;;;;18.23;10.52;;;;;;;8.56;73.46;101915.50;6328176;22;20007;-94
2022/11/14 20:11:04;;;;;;;15.80;9.13;;;;;;;8.31;73.85;101835.22;6350207;22;20026;-94
2022/11/14 20:13:37;;;;;;;15.93;8.70;;;;;;;8.62;73.85;101885.53;6348135;22;20014;-95
2022/11/14 20:16:14;;;;;;;17.70;9.00;;;;;;;8.46;73.73;101847.50;6339658;22;20091;-93
2022/11/14 20:19:13;;;;;;;15.85;8.98;;;;;;;8.34;73.45;101832.34;6343419;22;20006;-95
2022/11/14 20:21:44;;;;;;;15.95;8.15;;;;;;;8.30;73.51;101828.16;6333935;22;20014;-94
2022/11/14 20:25:02;;;;;;;15.57;8.65;;;;;;;8.77;73.55;101882.66;6375168;22;20010;-92
2022/11/14 20:27:51;;;;;;;14.70;8.63;;;;;;;8.68;72.79;101845.81;6218465;23;20453;-93
2022/11/14 20:30:19;;;;;;;14.80;8.52;;;;;;;8.64;72.85;101848.75;6291351;22;20022;-92
2022/11/14 20:32:45;;;;;;;15.73;8.35;;;;;;;8.99;72.59;101888.03;6340392;22;20493;-93
2022/11/14 20:35:11;;;;;;;16.83;8.38;;;;;;;8.99;72.30;101871.06;6321132;22;20034;-92
2022/11/14 20:37:42;;;;;;;17.90;8.98;;;;;;;8.95;71.96;101857.06;6372810;22;20014;-94
2022/11/14 20:40:13;;;;;;;17.23;9.85;;;;;;;8.77;72.61;101845.94;6373385;22;20013;-94
2022/11/14 20:42:57;;;;;;;14.88;8.65;;;;;;;8.90;72.54;101855.72;6354256;22;20014;-93
2022/11/14 20:45:23;;;;;;;;;;;;;;;9.01;72.52;101877.19;6381406;22;20013;-95
2022/11/14 20:54:41;;;;;;;15.15;8.27;;;;;;;8.83;72.80;101858.03;6388514;22;19997;-91
2022/11/14 20:57:22;;;;;;;;;;;;;;;;;;;;;
2022/11/14 20:59:48;;;;;;;15.60;8.50;;;;;;;8.64;72.25;101807.69;6356568;22;20141;-94
2022/11/14 21:02:22;;;;;;;22.20;13.60;;;;;;;8.81;72.10;101830.50;6330358;22;20018;-95
2022/11/14 21:04:50;;;;;;;19.00;11.98;;;;;;;8.75;71.78;101801.47;6325506;22;20052;-96
2022/11/14 21:07:36;;;;;;;14.40;8.65;;;;;;;8.93;72.12;101850.97;6339115;22;20067;-96
2022/11/14 21:13:54;;;;;;;14.00;7.70;;;;;;;8.83;71.93;101823.19;6390730;22;20066;-94
2022/11/14 21:15:57;;;;;;;13.45;8.55;;;;;;;8.99;71.82;101858.53;6363003;22;20069;-96
2022/11/14 21:18:24;;;;;;;13.95;8.57;;;;;;;8.62;71.92;101786.34;6348057;22;20062;-94
2022/11/14 21:21:15;;;;;;;15.32;8.57;;;;;;;8.92;72.38;101854.63;6322174;22;20002;-95
2022/11/14 21:23:47;;;;;;;13.75;7.85;;;;;;;8.68;72.42;101830.59;6346804;22;20011;-96
2022/11/14 21:26:28;;;;;;;14.30;8.55;;;;;;;8.68;72.17;101809.13;6321233;22;20013;-96
2022/11/14 21:29:12;;;;;;;15.15;8.77;;;;;;;8.50;72.32;101790.00;6348277;22;20005;-95
2022/11/14 21:32:40;;;;;;;;;;;;;;;;;;;;;
2022/11/14 21:36:05;;;;;;;15.80;8.73;;;;;;;8.79;72.46;101844.00;6368828;22;20042;-94
2022/11/14 21:38:46;;;;;;;14.00;7.82;;;;;;;8.39;72.85;101781.91;6371445;22;20014;-94
2022/11/14 21:41:42;;;;;;;12.70;7.90;;;;;;;8.51;72.81;101796.22;6377116;22;20010;-94
2022/11/14 21:44:31;;;;;;;;;;;;;;;8.85;72.67;101848.06;6363854;22;20009;-94